createdAt,value
2019-03-13T00:01:42.888Z,94308.67
2019-03-13T00:04:12.924Z,94315.64
2019-03-13T00:06:42.749Z,94315.45
2019-03-13T00:09:13.088Z,94304.31
2019-03-13T00:11:43.029Z,94301.16
2019-03-13T00:14:12.970Z,94285.59
2019-03-13T00:16:43.144Z,94285.77
2019-03-13T00:19:13.092Z,94285.86
2019-03-13T00:21:42.995Z,94295.98
2019-03-13T00:24:13.013Z,94286.81
2019-03-13T00:26:43.004Z,94281.62
2019-03-13T00:29:12.941Z,94283.11
2019-03-13T00:31:42.932Z,94273.91
2019-03-13T00:34:12.902Z,94277.45
2019-03-13T00:36:42.726Z,94277.74
2019-03-13T00:39:12.655Z,94274.73
2019-03-13T00:41:42.629Z,94262.84
2019-03-13T00:44:12.510Z,94250.19
2019-03-13T00:46:42.568Z,94249.70
2019-03-13T00:49:13.371Z,94243.23
2019-03-13T00:51:43.318Z,94234.20
2019-03-13T00:54:13.295Z,94235.75
2019-03-13T00:56:43.238Z,94227.22
2019-03-13T00:59:13.249Z,94224.57
2019-03-13T01:02:02.282Z,94222.56
2019-03-13T01:04:39.221Z,94221.02
2019-03-13T01:07:10.803Z,94234.61
2019-03-13T01:09:40.717Z,94240.89
2019-03-13T01:12:10.715Z,94237.69
2019-03-13T01:14:43.670Z,94242.26
2019-03-13T01:17:13.729Z,94257.65
2019-03-13T01:19:43.794Z,94256.86
2019-03-13T01:22:13.771Z,94256.34
2019-03-13T01:24:43.738Z,94285.55
2019-03-13T01:27:13.720Z,94264.50
2019-03-13T01:29:43.726Z,94339.30
2019-03-13T01:32:44.625Z,94269.48
2019-03-13T01:35:21.486Z,94284.55
2019-03-13T01:37:51.501Z,94307.52
2019-03-13T01:40:21.359Z,94287.90
2019-03-13T01:42:51.331Z,94321.86
2019-03-13T01:45:21.456Z,94307.70
2019-03-13T01:47:51.350Z,94306.16
2019-03-13T01:50:21.269Z,94308.08
2019-03-13T01:52:51.295Z,94321.19
2019-03-13T01:55:21.258Z,94321.58
2019-03-13T01:57:51.235Z,94385.61
2019-03-13T02:00:21.245Z,94343.14
2019-03-13T02:02:51.206Z,94342.28
2019-03-13T02:05:21.075Z,94333.20
2019-03-13T02:07:52.044Z,94345.14
2019-03-13T02:10:22.067Z,94344.78
2019-03-13T02:12:51.884Z,94361.13
2019-03-13T02:15:21.894Z,94366.61
2019-03-13T02:17:51.883Z,94365.75
2019-03-13T02:20:21.768Z,94370.31
2019-03-13T02:22:51.593Z,94372.59
2019-03-13T02:25:21.510Z,94382.27
2019-03-13T02:27:51.491Z,94397.92
2019-03-13T02:30:23.668Z,94383.64
2019-03-13T02:32:53.580Z,94381.78
2019-03-13T02:35:23.420Z,94408.63
2019-03-13T02:37:53.279Z,94378.52
2019-03-13T02:40:23.214Z,94390.77
2019-03-13T02:42:54.001Z,94397.80
2019-03-13T02:45:24.016Z,94444.66
2019-03-13T02:47:53.986Z,94422.84
2019-03-13T02:50:23.944Z,94444.66
2019-03-13T02:52:53.750Z,94439.47
2019-03-13T02:55:23.663Z,94443.88
2019-03-13T02:57:53.581Z,94466.83
2019-03-13T03:00:37.652Z,94477.67
2019-03-13T03:03:09.303Z,94461.36
2019-03-13T03:05:39.294Z,94486.70
2019-03-13T03:08:09.193Z,94507.31
2019-03-13T03:10:39.198Z,94511.63
2019-03-13T03:13:09.020Z,94516.66
2019-03-13T03:15:38.966Z,94538.25
2019-03-13T03:18:08.899Z,94536.16
2019-03-13T03:20:38.793Z,94535.87
2019-03-13T03:23:08.637Z,94534.94
2019-03-13T03:25:38.579Z,94542.49
2019-03-13T03:28:08.500Z,94581.86
2019-03-13T03:30:38.426Z,94564.00
2019-03-13T03:33:08.374Z,94581.37
2019-03-13T03:35:38.416Z,94584.82
2019-03-13T03:38:08.541Z,94588.61
2019-03-13T03:40:39.457Z,94570.14
2019-03-13T03:43:09.514Z,94610.53
2019-03-13T03:45:39.424Z,94614.45
2019-03-13T03:48:09.341Z,94610.98
2019-03-13T03:50:39.303Z,94628.94
2019-03-13T03:53:09.194Z,94637.51
2019-03-13T03:55:39.176Z,94663.89
2019-03-13T03:58:09.296Z,94640.36
2019-03-13T04:00:39.559Z,94643.19
2019-03-13T04:03:09.533Z,94642.42
2019-03-13T04:05:39.524Z,94638.89
2019-03-13T04:08:09.456Z,94623.73
2019-03-13T04:10:39.446Z,94652.83
2019-03-13T04:13:09.373Z,94638.82
2019-03-13T04:15:39.371Z,94645.44
2019-03-13T04:18:09.290Z,94650.05
2019-03-13T04:20:39.345Z,94650.28
2019-03-13T04:23:09.226Z,94643.33
2019-03-13T04:25:39.438Z,94647.03
2019-03-13T04:28:09.404Z,94651.82
2019-03-13T04:30:40.365Z,94661.33
2019-03-13T04:33:11.331Z,94683.84
2019-03-13T04:35:41.260Z,94680.94
2019-03-13T04:38:11.183Z,94676.00
2019-03-13T04:40:41.066Z,94679.95
2019-03-13T04:43:10.917Z,94685.78
2019-03-13T04:45:40.917Z,94697.66
2019-03-13T04:48:10.848Z,94712.75
2019-03-13T04:50:40.750Z,94721.31
2019-03-13T04:53:10.697Z,94715.43
2019-03-13T04:55:40.702Z,94720.91
2019-03-13T04:58:10.597Z,94724.75
2019-03-13T05:00:40.434Z,94733.39
2019-03-13T05:03:10.744Z,94745.78
2019-03-13T05:05:45.389Z,94746.73
2019-03-13T05:08:27.873Z,94738.94
2019-03-13T05:10:57.798Z,94757.24
2019-03-13T05:13:27.786Z,94764.56
2019-03-13T05:15:57.742Z,94762.03
2019-03-13T05:18:27.634Z,94773.27
2019-03-13T05:20:57.613Z,94769.52
2019-03-13T05:23:27.661Z,94777.73
2019-03-13T05:25:57.877Z,94793.16
2019-03-13T05:28:27.768Z,94793.09
2019-03-13T05:30:57.721Z,94798.36
2019-03-13T05:33:27.627Z,94828.91
2019-03-13T05:35:57.577Z,94810.90
2019-03-13T05:38:27.484Z,94813.41
2019-03-13T05:40:57.386Z,94810.03
2019-03-13T05:43:28.350Z,94818.11
2019-03-13T05:45:58.285Z,94817.40
2019-03-13T05:48:28.306Z,94830.17
2019-03-13T05:50:58.148Z,94828.84
2019-03-13T05:53:28.051Z,94839.48
2019-03-13T05:55:58.151Z,94846.27
2019-03-13T05:58:28.090Z,94850.64
2019-03-13T06:00:58.079Z,94842.88
2019-03-13T06:03:28.053Z,94838.50
2019-03-13T06:05:58.043Z,94846.72
2019-03-13T06:08:27.940Z,94856.34
2019-03-13T06:10:57.929Z,94853.67
2019-03-13T06:13:27.871Z,94860.53
2019-03-13T06:15:57.803Z,94862.41
2019-03-13T06:18:27.765Z,94880.52
2019-03-13T06:20:57.592Z,94865.22
2019-03-13T06:23:27.513Z,94860.38
2019-03-13T06:25:57.397Z,94875.03
2019-03-13T06:28:27.305Z,94868.48
2019-03-13T06:30:57.239Z,94895.61
2019-03-13T06:33:27.232Z,94869.16
2019-03-13T06:35:57.130Z,94872.98
2019-03-13T06:38:27.141Z,94881.18
2019-03-13T06:40:57.216Z,94879.73
2019-03-13T06:43:27.070Z,94874.73
2019-03-13T06:45:57.073Z,94881.56
2019-03-13T06:48:27.226Z,94877.89
2019-03-13T06:50:57.121Z,94881.78
2019-03-13T06:53:27.073Z,94882.23
2019-03-13T06:55:57.052Z,94878.98
2019-03-13T06:58:49.107Z,94883.05
2019-03-13T07:01:41.145Z,94883.52
2019-03-13T07:04:29.131Z,94879.70
2019-03-13T07:07:15.119Z,94889.80
2019-03-13T07:09:59.800Z,94886.98
2019-03-13T07:12:55.048Z,94890.77
2019-03-13T07:15:47.164Z,94883.45
2019-03-13T07:18:27.933Z,94885.70
2019-03-13T07:21:05.911Z,94885.33
2019-03-13T07:24:00.508Z,94893.09
2019-03-13T07:26:45.080Z,94881.98
2019-03-13T07:29:30.629Z,94875.05
2019-03-13T07:32:12.849Z,94876.45
2019-03-13T07:35:07.593Z,94867.86
2019-03-13T07:38:16.018Z,94868.12
2019-03-13T07:40:55.533Z,94879.28
2019-03-13T07:43:49.967Z,94888.11
2019-03-13T07:46:38.996Z,94867.84
2019-03-13T07:49:27.919Z,94869.92
2019-03-13T07:52:16.835Z,94872.10
2019-03-13T07:55:06.788Z,94892.93
2019-03-13T07:57:46.681Z,94874.60
2019-03-13T08:00:34.417Z,94864.45
2019-03-13T08:03:23.316Z,94876.71
2019-03-13T08:06:21.388Z,94861.19
2019-03-13T08:09:05.219Z,94872.27
2019-03-13T08:12:04.818Z,94881.76
2019-03-13T08:14:53.736Z,94883.68
2019-03-13T08:17:33.933Z,94877.08
2019-03-13T08:20:15.414Z,94862.20
2019-03-13T08:22:57.913Z,94881.48
2019-03-13T08:25:34.580Z,94881.03
2019-03-13T08:28:26.435Z,94876.47
2019-03-13T08:31:14.297Z,94872.03
2019-03-13T08:34:05.587Z,94875.56
2019-03-13T08:36:54.418Z,94880.53
2019-03-13T08:39:43.507Z,94880.76
2019-03-13T08:42:35.155Z,94861.22
2019-03-13T08:45:32.647Z,94852.93
2019-03-13T08:48:08.317Z,94867.00
2019-03-13T08:50:51.559Z,94854.27
2019-03-13T08:53:40.392Z,94854.31
2019-03-13T08:56:19.072Z,94850.66
2019-03-13T08:59:13.965Z,94859.85
2019-03-13T09:02:21.318Z,94863.05
2019-03-13T09:05:05.062Z,94882.08
2019-03-13T09:07:50.949Z,94852.85
2019-03-13T09:10:47.389Z,94844.55
2019-03-13T09:13:26.017Z,94888.72
2019-03-13T09:16:14.904Z,94835.15
2019-03-13T09:18:50.726Z,94844.55
2019-03-13T09:21:33.707Z,94832.78
2019-03-13T09:24:15.428Z,94841.70
2019-03-13T09:27:04.276Z,94838.84
2019-03-13T09:29:51.791Z,94821.45
2019-03-13T09:32:38.409Z,94833.67
2019-03-13T09:35:26.246Z,94826.22
2019-03-13T09:38:24.005Z,94852.45
2019-03-13T09:41:15.814Z,94807.92
2019-03-13T09:44:07.415Z,94820.09
2019-03-13T09:46:56.423Z,94812.06
2019-03-13T09:49:44.500Z,94823.09
2019-03-13T09:52:30.877Z,94830.51
2019-03-13T09:55:11.889Z,94802.63
2019-03-13T09:58:04.402Z,94798.84
2019-03-13T10:00:46.895Z,94850.11
2019-03-13T10:03:34.375Z,94809.45
2019-03-13T10:06:38.379Z,94797.02
2019-03-13T10:09:22.405Z,94808.00
2019-03-13T10:12:23.261Z,94795.78
2019-03-13T10:15:12.247Z,94819.66
2019-03-13T10:17:55.387Z,94813.16
2019-03-13T10:20:44.418Z,94805.98
2019-03-13T10:23:48.749Z,94807.83
2019-03-13T10:26:37.726Z,94804.39
2019-03-13T10:29:26.623Z,94830.48
2019-03-13T10:32:05.531Z,94804.55
2019-03-13T10:35:09.799Z,94825.30
2019-03-13T10:37:57.679Z,94812.16
2019-03-13T10:40:46.432Z,94818.73
2019-03-13T10:43:41.181Z,94796.06
2019-03-13T10:46:32.936Z,94797.57
2019-03-13T10:49:20.768Z,94801.33
2019-03-13T10:52:09.910Z,94794.59
2019-03-13T10:54:58.786Z,94782.27
2019-03-13T10:57:46.709Z,94778.70
2019-03-13T11:00:34.133Z,94767.08
2019-03-13T11:03:23.201Z,94776.72
2019-03-13T11:06:12.947Z,94769.14
2019-03-13T11:09:02.562Z,94770.19
2019-03-13T11:11:39.906Z,94759.16
2019-03-13T11:14:16.855Z,94749.47
2019-03-13T11:17:02.562Z,94756.55
2019-03-13T11:19:54.195Z,94749.75
2019-03-13T11:22:41.418Z,94748.06
2019-03-13T11:25:20.336Z,94786.41
2019-03-13T11:28:09.258Z,94816.88
2019-03-13T11:31:07.288Z,94818.77
2019-03-13T11:33:54.987Z,94821.95
2019-03-13T11:37:02.145Z,94816.06
2019-03-13T11:39:52.068Z,94803.34
2019-03-13T11:42:39.398Z,94808.51
2019-03-13T11:45:23.936Z,94802.27
2019-03-13T11:48:11.703Z,94798.89
2019-03-13T11:50:56.540Z,94776.42
2019-03-13T11:53:44.416Z,94772.77
2019-03-13T11:56:32.270Z,94753.25
2019-03-13T11:59:20.288Z,94750.71
2019-03-13T12:02:08.149Z,94744.29
2019-03-13T12:04:45.574Z,94734.98
2019-03-13T12:07:36.581Z,94725.39
2019-03-13T12:10:29.443Z,94740.45
2019-03-13T12:13:12.253Z,94724.84
2019-03-13T12:15:54.654Z,94700.77
2019-03-13T12:18:32.544Z,94705.20
2019-03-13T12:21:25.088Z,94693.73
2019-03-13T12:24:15.692Z,94707.44
2019-03-13T12:27:13.974Z,94693.80
2019-03-13T12:30:08.960Z,94686.95
2019-03-13T12:33:00.633Z,94679.70
2019-03-13T12:35:41.680Z,94668.34
2019-03-13T12:38:21.520Z,94681.46
2019-03-13T12:41:20.009Z,94682.44
2019-03-13T12:44:08.974Z,94687.21
2019-03-13T12:46:48.422Z,94686.81
2019-03-13T12:49:40.135Z,94705.12
2019-03-13T12:52:41.111Z,94724.07
2019-03-13T12:55:19.372Z,94740.19
2019-03-13T12:58:07.781Z,94716.48
2019-03-13T13:00:59.531Z,94701.81
2019-03-13T13:03:51.464Z,94686.23
2019-03-13T13:06:40.285Z,94673.12
2019-03-13T13:09:41.650Z,94670.22
2019-03-13T13:12:45.750Z,94675.17
2019-03-13T13:15:43.608Z,94683.59
2019-03-13T13:18:44.679Z,94676.75
2019-03-13T13:21:14.518Z,94674.86
2019-03-13T13:23:44.372Z,94675.27
2019-03-13T13:26:14.375Z,94668.98
2019-03-13T13:28:44.293Z,94667.89
2019-03-13T13:31:14.345Z,94658.65
2019-03-13T13:33:44.244Z,94665.82
2019-03-13T13:36:14.369Z,94674.47
2019-03-13T13:38:44.380Z,94690.47
2019-03-13T13:41:14.477Z,94672.67
2019-03-13T13:43:44.505Z,94674.63
2019-03-13T13:46:23.890Z,94667.44
2019-03-13T13:48:53.870Z,94673.23
2019-03-13T13:51:23.906Z,94720.00
2019-03-13T13:53:55.783Z,94819.03
2019-03-13T13:56:25.475Z,94700.66
2019-03-13T13:58:55.370Z,94708.42
2019-03-13T14:01:25.210Z,94701.43
2019-03-13T14:03:55.126Z,94707.05
2019-03-13T14:06:25.090Z,94689.67
2019-03-13T14:08:54.935Z,94672.66
2019-03-13T14:11:25.069Z,94689.73
2019-03-13T14:13:55.001Z,94679.97
2019-03-13T14:16:24.894Z,94677.55
2019-03-13T14:18:54.739Z,94675.83
2019-03-13T14:21:24.767Z,94669.69
2019-03-13T14:23:54.807Z,94675.30
2019-03-13T14:26:24.772Z,94667.80
2019-03-13T14:28:54.917Z,94666.81
2019-03-13T14:31:24.986Z,94686.52
2019-03-13T14:33:54.867Z,94699.66
2019-03-13T14:36:25.869Z,94702.37
2019-03-13T14:38:55.796Z,94694.80
2019-03-13T14:41:26.658Z,94702.06
2019-03-13T14:43:57.776Z,94702.19
2019-03-13T14:46:27.626Z,94700.71
2019-03-13T14:48:57.616Z,94708.27
2019-03-13T14:51:27.564Z,94709.25
2019-03-13T14:53:57.643Z,94760.29
2019-03-13T14:56:28.739Z,94721.70
2019-03-13T14:58:58.641Z,94702.59
2019-03-13T15:01:28.760Z,94706.62
2019-03-13T15:03:58.615Z,94699.84
2019-03-13T15:06:28.552Z,94711.45
2019-03-13T15:08:58.385Z,94692.52
2019-03-13T15:11:28.247Z,94689.50
2019-03-13T15:13:58.204Z,94708.64
2019-03-13T15:16:28.120Z,94719.89
2019-03-13T15:18:58.126Z,94731.05
2019-03-13T15:21:28.034Z,94710.18
2019-03-13T15:23:57.994Z,94707.34
2019-03-13T15:26:28.077Z,94705.59
2019-03-13T15:28:58.065Z,94714.45
2019-03-13T15:31:28.040Z,94708.50
2019-03-13T15:33:58.043Z,94708.20
2019-03-13T15:36:27.963Z,94695.89
2019-03-13T15:38:57.917Z,94679.09
2019-03-13T15:41:27.914Z,94683.46
2019-03-13T15:43:57.882Z,94680.18
2019-03-13T15:46:27.882Z,94688.16
2019-03-13T15:48:57.890Z,94681.52
2019-03-13T15:51:27.825Z,94668.84
2019-03-13T15:53:57.741Z,94662.22
2019-03-13T15:56:28.722Z,94665.37
2019-03-13T15:58:58.661Z,94682.00
2019-03-13T16:01:28.729Z,94670.67
2019-03-13T16:03:58.673Z,94662.34
2019-03-13T16:06:28.717Z,94665.39
2019-03-13T16:08:59.709Z,94664.89
2019-03-13T16:11:29.636Z,94660.40
2019-03-13T16:13:59.706Z,94661.19
2019-03-13T16:16:29.701Z,94662.10
2019-03-13T16:18:59.699Z,94672.48
2019-03-13T16:21:29.634Z,94673.09
2019-03-13T16:23:59.489Z,94668.91
2019-03-13T16:26:29.449Z,94667.28
2019-03-13T16:28:59.499Z,94667.94
2019-03-13T16:31:29.516Z,94655.72
2019-03-13T16:33:59.436Z,94662.28
2019-03-13T16:36:29.463Z,94656.64
2019-03-13T16:38:59.447Z,94656.41
2019-03-13T16:41:29.457Z,94652.65
2019-03-13T16:43:59.297Z,94660.91
2019-03-13T16:46:29.268Z,94682.47
2019-03-13T16:48:59.277Z,94693.94
2019-03-13T16:51:29.267Z,94697.03
2019-03-13T16:53:59.175Z,94675.25
2019-03-13T16:56:29.281Z,94712.66
2019-03-13T16:58:59.494Z,94665.74
2019-03-13T17:01:29.492Z,94670.20
2019-03-13T17:03:59.473Z,94674.18
2019-03-13T17:06:29.435Z,94679.13
2019-03-13T17:08:59.360Z,94681.87
2019-03-13T17:11:29.330Z,94683.25
2019-03-13T17:13:59.354Z,94684.66
2019-03-13T17:16:29.359Z,94682.70
2019-03-13T17:18:59.270Z,94690.36
2019-03-13T17:21:29.271Z,94695.23
2019-03-13T17:23:59.226Z,94688.41
2019-03-13T17:26:29.200Z,94681.86
2019-03-13T17:28:59.103Z,94683.94
2019-03-13T17:31:29.072Z,94679.05
2019-03-13T17:34:00.862Z,94684.03
2019-03-13T17:36:30.849Z,94688.39
2019-03-13T17:39:00.775Z,94675.91
2019-03-13T17:41:32.740Z,94670.45
2019-03-13T17:44:02.667Z,94677.20
2019-03-13T17:46:32.682Z,94677.19
2019-03-13T17:49:02.616Z,94668.96
2019-03-13T17:51:32.565Z,94679.02
2019-03-13T17:54:02.616Z,94662.60
2019-03-13T17:56:33.904Z,94656.63
2019-03-13T17:59:05.002Z,94650.81
2019-03-13T18:01:34.955Z,94659.20
2019-03-13T18:04:06.434Z,94654.91
2019-03-13T18:06:36.527Z,94668.86
2019-03-13T18:09:07.716Z,94663.50
2019-03-13T18:11:39.235Z,94668.62
2019-03-13T18:14:09.377Z,94657.52
2019-03-13T18:16:39.317Z,94651.47
2019-03-13T18:19:09.245Z,94655.35
2019-03-13T18:21:40.404Z,94656.25
2019-03-13T18:24:10.373Z,94665.83
2019-03-13T18:26:40.349Z,94665.11
2019-03-13T18:29:10.266Z,94672.19
2019-03-13T18:31:40.316Z,94664.11
2019-03-13T18:34:10.266Z,94671.37
2019-03-13T18:36:49.779Z,94665.34
2019-03-13T18:39:19.813Z,94668.61
2019-03-13T18:41:49.843Z,94663.81
2019-03-13T18:44:19.905Z,94655.84
2019-03-13T18:46:49.919Z,94654.59
2019-03-13T18:49:19.896Z,94666.59
2019-03-13T18:51:49.850Z,94668.03
2019-03-13T18:54:19.894Z,94669.64
2019-03-13T18:56:49.842Z,94684.59
2019-03-13T18:59:22.131Z,94667.59
2019-03-13T19:01:52.215Z,94677.06
2019-03-13T19:04:22.319Z,94681.02
2019-03-13T19:06:52.291Z,94686.41
2019-03-13T19:09:23.316Z,94686.17
2019-03-13T19:11:53.270Z,94685.76
2019-03-13T19:14:23.282Z,94690.43
2019-03-13T19:16:56.738Z,94693.91
2019-03-13T19:19:26.797Z,94696.99
2019-03-13T19:21:56.868Z,94684.83
2019-03-13T19:24:26.817Z,94687.09
2019-03-13T19:26:56.853Z,94675.78
2019-03-13T19:29:26.915Z,94678.67
2019-03-13T19:31:56.784Z,94676.30
2019-03-13T19:34:26.702Z,94693.00
2019-03-13T19:36:56.674Z,94668.17
2019-03-13T19:39:26.706Z,94666.58
2019-03-13T19:41:56.675Z,94667.80
2019-03-13T19:44:26.611Z,94674.44
2019-03-13T19:46:56.554Z,94680.73
2019-03-13T19:49:26.638Z,94671.22
2019-03-13T19:51:56.763Z,94668.81
2019-03-13T19:54:26.687Z,94673.15
2019-03-13T19:56:56.658Z,94678.13
2019-03-13T19:59:26.596Z,94688.27
2019-03-13T20:01:56.801Z,94683.48
2019-03-13T20:04:26.779Z,94673.53
2019-03-13T20:06:56.763Z,94676.98
2019-03-13T20:09:26.801Z,94664.69
2019-03-13T20:11:56.734Z,94688.64
2019-03-13T20:14:26.848Z,94680.89
2019-03-13T20:16:56.839Z,94678.56
2019-03-13T20:19:26.886Z,94685.59
2019-03-13T20:21:56.889Z,94681.37
2019-03-13T20:24:26.888Z,94685.82
2019-03-13T20:26:57.822Z,94681.16
2019-03-13T20:29:27.761Z,94686.74
2019-03-13T20:31:58.887Z,94674.94
2019-03-13T20:34:29.037Z,94685.03
2019-03-13T20:36:59.039Z,94687.83
2019-03-13T20:39:30.139Z,94682.41
2019-03-13T20:42:00.070Z,94685.11
2019-03-13T20:44:30.056Z,94685.90
2019-03-13T20:47:00.052Z,94679.50
2019-03-13T20:49:32.705Z,94690.72
2019-03-13T20:52:02.641Z,94677.78
2019-03-13T20:54:32.663Z,94690.34
2019-03-13T20:57:02.774Z,94694.80
2019-03-13T20:59:32.931Z,94700.39
2019-03-13T21:02:03.879Z,94711.20
2019-03-13T21:04:33.849Z,94703.81
2019-03-13T21:07:03.868Z,94699.21
2019-03-13T21:09:34.893Z,94699.50
2019-03-13T21:12:07.679Z,94686.70
2019-03-13T21:14:37.615Z,94688.37
2019-03-13T21:17:07.692Z,94686.50
2019-03-13T21:19:37.936Z,94701.72
2019-03-13T21:22:07.898Z,94696.59
2019-03-13T21:24:37.783Z,94724.14
2019-03-13T21:27:09.045Z,94710.19
2019-03-13T21:29:39.062Z,94708.16
2019-03-13T21:32:08.965Z,94747.03
2019-03-13T21:34:38.921Z,94730.45
2019-03-13T21:37:08.865Z,94712.53
2019-03-13T21:39:38.893Z,94702.56
2019-03-13T21:42:09.902Z,94716.81
2019-03-13T21:44:39.843Z,94712.19
2019-03-13T21:47:09.753Z,94696.61
2019-03-13T21:49:39.886Z,94698.50
2019-03-13T21:52:09.851Z,94698.32
2019-03-13T21:54:39.780Z,94713.81
2019-03-13T21:57:09.756Z,94710.17
2019-03-13T21:59:39.704Z,94700.15
2019-03-13T22:02:09.812Z,94706.42
2019-03-13T22:04:39.805Z,94720.79
2019-03-13T22:07:09.806Z,94712.06
2019-03-13T22:09:39.900Z,94717.29
2019-03-13T22:12:29.246Z,94713.92
2019-03-13T22:14:59.256Z,94709.28
2019-03-13T22:17:29.232Z,94710.27
2019-03-13T22:19:59.346Z,94706.80
2019-03-13T22:22:29.279Z,94698.63
2019-03-13T22:24:59.271Z,94703.69
2019-03-13T22:27:29.368Z,94709.47
2019-03-13T22:29:59.232Z,94679.69
2019-03-13T22:32:29.327Z,94681.12
2019-03-13T22:34:59.407Z,94691.28
2019-03-13T22:37:29.365Z,94694.43
2019-03-13T22:39:59.207Z,94691.86
2019-03-13T22:42:30.811Z,94691.25
2019-03-13T22:45:01.216Z,94690.73
2019-03-13T22:47:41.976Z,94684.91
2019-03-13T22:50:02.850Z,94686.66
2019-03-13T22:52:32.784Z,94681.95
2019-03-13T22:55:02.704Z,94674.92
2019-03-13T22:57:32.732Z,94664.27
2019-03-13T23:00:02.936Z,94666.97
2019-03-13T23:02:34.104Z,94682.08
2019-03-13T23:05:05.289Z,94674.40
2019-03-13T23:07:36.629Z,94695.96
2019-03-13T23:10:24.793Z,94688.41
2019-03-13T23:12:54.733Z,94683.19
2019-03-13T23:15:24.723Z,94707.28
2019-03-13T23:17:54.781Z,94695.44
2019-03-13T23:20:24.758Z,94716.67
2019-03-13T23:22:54.597Z,94702.95
2019-03-13T23:25:24.532Z,94702.44
2019-03-13T23:27:54.537Z,94710.84
2019-03-13T23:30:24.650Z,94708.39
2019-03-13T23:32:54.719Z,94705.11
2019-03-13T23:35:24.636Z,94700.62
2019-03-13T23:37:54.652Z,94704.60
2019-03-13T23:40:24.568Z,94703.05
2019-03-13T23:42:54.469Z,94700.20
2019-03-13T23:45:24.362Z,94706.31
2019-03-13T23:47:54.348Z,94695.30
2019-03-13T23:50:24.318Z,94700.22
2019-03-13T23:52:54.311Z,94715.41
2019-03-13T23:55:24.326Z,94692.06
2019-03-13T23:57:54.196Z,94693.33
